Data for 12/07/2013

Time Sea-Level Adjusted Pressure Absolute Pressure Temperature Relative Humidity Dew Point   
(mb) (inHg) (mb) (inHg) (C) (F) (%) (C) (F)
00:05 1021 30.15 850 25.1 -25.4 -13.8 63 -30.5 -22.9
00:10 1021 30.15 850 25.1 -25.5 -13.9 65 -30.3 -22.6
00:15 1021 30.15 850 25.1 -25.5 -13.9 65 -30.3 -22.5
00:20 1021 30.15 850 25.1 -25.5 -13.9 64 -30.5 -22.9
00:25 1021 30.15 850 25.1 -25.5 -13.9 64 -30.5 -22.8
00:30 1021 30.15 850 25.1 -25.5 -14 64 -30.6 -23
00:35 1021 30.15 850 25.1 -25.6 -14.1 64 -30.6 -23.1
00:40 1021 30.15 850 25.1 -25.6 -14.1 63 -30.7 -23.2
00:45 1021 30.15 850 25.1 -25.7 -14.2 63 -30.8 -23.4
00:50 1021 30.15 850 25.1 -25.7 -14.2 64 -30.7 -23.2
00:55 1021 30.15 850 25.1 -25.7 -14.2 63 -30.8 -23.5
01:00 1021 30.15 850 25.1 -25.7 -14.3 64 -30.8 -23.4
01:05 1021 30.15 850 25.1 -25.8 -14.5 64 -30.7 -23.3
01:10 1021 30.15 850 25.1 -25.9 -14.5 64 -30.7 -23.3
01:15 1021 30.15 850 25.1 -25.9 -14.6 65 -30.7 -23.2
01:20 1021 30.15 850 25.1 -25.9 -14.6 64 -30.8 -23.4
01:25 1020 30.12 850 25.1 -25.9 -14.7 64 -30.8 -23.4
01:30 1020 30.12 850 25.1 -25.9 -14.6 64 -30.8 -23.4
01:35 1020 30.12 850 25.1 -25.9 -14.7 64 -30.9 -23.6
01:40 1020 30.12 849 25.07 -26 -14.7 63 -31.1 -23.9
01:45 1020 30.12 849 25.07 -26 -14.8 63 -31.1 -23.9
01:50 1020 30.12 849 25.07 -26.1 -14.9 63 -31.1 -24
01:55 1020 30.12 849 25.07 -26.1 -15.1 64 -31.1 -24
02:00 1020 30.12 849 25.07 -26.2 -15.2 63 -31.3 -24.3
02:05 1020 30.12 849 25.07 -26.3 -15.3 64 -31.2 -24.2
02:10 1020 30.12 849 25.07 -26.4 -15.4 64 -31.3 -24.3
02:15 1020 30.12 849 25.07 -26.4 -15.5 64 -31.3 -24.3
02:20 1020 30.12 849 25.07 -26.4 -15.5 64 -31.3 -24.4
02:25 1019 30.09 849 25.07 -26.4 -15.6 64 -31.4 -24.5
02:30 1019 30.09 849 25.07 -26.5 -15.7 65 -31.3 -24.3
02:35 1019 30.09 849 25.07 -26.6 -15.8 65 -31.3 -24.4
02:40 1019 30.09 849 25.07 -26.6 -15.9 65 -31.3 -24.4
02:45 1019 30.09 849 25.07 -26.7 -16 65 -31.4 -24.5
02:50 1019 30.09 849 25.07 -26.7 -16.1 65 -31.4 -24.5
02:55 1020 30.12 849 25.07 -26.8 -16.2 66 -31.4 -24.5
03:00 1019 30.09 849 25.07 -26.8 -16.2 66 -31.4 -24.5
03:05 1019 30.09 849 25.07 -26.8 -16.2 66 -31.3 -24.4
03:10 1019 30.09 849 25.07 -26.9 -16.3 66 -31.4 -24.5
03:15 1020 30.12 849 25.07 -26.9 -16.4 66 -31.4 -24.5
03:20 1020 30.12 849 25.07 -26.9 -16.5 67 -31.4 -24.5
03:25 1019 30.09 849 25.07 -27 -16.5 67 -31.4 -24.5
03:30 1019 30.09 849 25.07 -27 -16.6 66 -31.5 -24.7
03:35 1019 30.09 849 25.07 -27 -16.6 66 -31.5 -24.6
03:40 1019 30.09 849 25.07 -27 -16.6 67 -31.4 -24.5
03:45 1020 30.12 849 25.07 -27 -16.5 67 -31.4 -24.5
03:50 1020 30.12 849 25.07 -27 -16.6 67 -31.5 -24.6
03:55 1020 30.12 849 25.07 -27 -16.6 67 -31.5 -24.6
04:00 1019 30.09 849 25.07 -27 -16.7 67 -31.5 -24.6
04:05 1019 30.09 849 25.07 -27.1 -16.7 67 -31.5 -24.6
04:10 1019 30.09 848 25.04 -27.1 -16.7 66 -31.6 -24.9
04:15 1019 30.09 848 25.04 -27.1 -16.7 66 -31.6 -24.8
04:20 1019 30.09 848 25.04 -27.1 -16.7 67 -31.5 -24.7
04:25 1019 30.09 848 25.04 -27.1 -16.7 66 -31.6 -24.9
04:30 1019 30.09 848 25.04 -27.1 -16.7 67 -31.5 -24.7
04:35 1019 30.09 848 25.04 -27.1 -16.7 66 -31.6 -24.9
04:40 1019 30.09 848 25.04 -27.1 -16.7 67 -31.4 -24.6
04:45 1019 30.09 848 25.04 -27.1 -16.7 67 -31.5 -24.7
04:50 1019 30.09 848 25.04 -27.1 -16.8 66 -31.6 -24.9
04:55 1018 30.06 848 25.04 -27.2 -16.9 67 -31.6 -24.8
05:00 1018 30.06 848 25.04 -27.1 -16.8 66 -31.6 -24.9
05:05 1018 30.06 848 25.04 -27.1 -16.8 66 -31.7 -25
05:10 1018 30.06 848 25.04 -27.1 -16.8 67 -31.5 -24.8
05:15 1018 30.06 848 25.04 -27.1 -16.8 66 -31.6 -24.9
05:20 1018 30.06 848 25.04 -27.2 -16.9 66 -31.7 -25.1
05:25 1018 30.06 847 25.01 -27.1 -16.8 67 -31.6 -24.8
05:30 1018 30.06 848 25.04 -27.1 -16.8 67 -31.5 -24.7
05:35 1018 30.06 847 25.01 -27.1 -16.8 67 -31.5 -24.7
05:40 1018 30.06 847 25.01 -27.1 -16.8 67 -31.5 -24.7
05:45 1018 30.06 847 25.01 -27.1 -16.7 67 -31.5 -24.7
05:50 1018 30.06 847 25.01 -27.1 -16.7 66 -31.7 -25
05:55 1018 30.06 847 25.01 -27 -16.7 65 -31.7 -25.1
06:00 1018 30.06 847 25.01 -27 -16.6 66 -31.6 -24.9
06:05 1018 30.06 847 25.01 -27 -16.5 67 -31.3 -24.4
06:10 1018 30.06 847 25.01 -26.9 -16.3 66 -31.4 -24.6
06:15 1018 30.06 847 25.01 -26.9 -16.4 66 -31.4 -24.5
06:20 1018 30.06 847 25.01 -26.9 -16.3 68 -31.2 -24.1
06:25 1018 30.06 847 25.01 -26.8 -16.2 67 -31.2 -24.1
06:30 1018 30.06 847 25.01 -26.7 -16.1 66 -31.2 -24.2
06:35 1018 30.06 847 25.01 -26.7 -16 66 -31.2 -24.2
06:40 1017 30.03 847 25.01 -26.7 -16.1 66 -31.3 -24.3
06:45 1017 30.03 847 25.01 -26.7 -16.1 67 -31.2 -24.1
06:50 1017 30.03 846 24.98 -26.7 -16.1 66 -31.2 -24.2
06:55 1017 30.03 846 24.98 -26.7 -16.1 66 -31.2 -24.2
07:00 1017 30.03 846 24.98 -26.7 -16.1 67 -31.2 -24.1
07:05 1017 30.03 846 24.98 -26.7 -16.1 67 -31.1 -24
07:10 1017 30.03 846 24.98 -26.7 -16 67 -31.1 -24
07:15 1017 30.03 846 24.98 -26.6 -16 67 -31.1 -24
07:20 1017 30.03 846 24.98 -26.7 -16 67 -31.1 -24
07:25 1017 30.03 846 24.98 -26.7 -16.1 67 -31.1 -24.1
07:30 1017 30.03 846 24.98 -26.7 -16.1 66 -31.2 -24.2
07:35 1017 30.03 846 24.98 -26.7 -16 66 -31.3 -24.3
07:40 1017 30.03 846 24.98 -26.7 -16 66 -31.3 -24.3
07:45 1017 30.03 846 24.98 -26.7 -16.1 67 -31.2 -24.1
07:50 1017 30.03 846 24.98 -26.8 -16.2 66 -31.3 -24.4
07:55 1017 30.03 846 24.98 -26.8 -16.3 66 -31.4 -24.5
08:00 1017 30.03 846 24.98 -26.8 -16.2 66 -31.3 -24.4
08:05 1017 30.03 846 24.98 -26.8 -16.2 66 -31.3 -24.3
08:10 1017 30.03 846 24.98 -26.7 -16.1 67 -31.2 -24.2
08:15 1017 30.03 846 24.98 -26.7 -16.1 66 -31.3 -24.4
08:20 1017 30.03 846 24.98 -26.7 -16.1 66 -31.2 -24.2
08:25 1017 30.03 846 24.98 -26.7 -16 66 -31.2 -24.2
08:30 1017 30.03 846 24.98 -26.7 -16 66 -31.3 -24.3
08:35 1017 30.03 846 24.98 -26.7 -16 66 -31.2 -24.1
08:40 1017 30.03 846 24.98 -26.6 -15.9 66 -31.1 -24
08:45 1017 30.03 846 24.98 -26.6 -15.8 66 -31.1 -24
08:50 1017 30.03 846 24.98 -26.5 -15.7 67 -31 -23.8
08:55 1017 30.03 846 24.98 -26.5 -15.7 65 -31.2 -24.1
09:00 1017 30.03 846 24.98 -26.5 -15.6 65 -31.2 -24.2
09:05 1017 30.03 846 24.98 -26.5 -15.7 65 -31.2 -24.1
09:10 1017 30.03 846 24.98 -26.5 -15.7 67 -31 -23.8
09:15 1017 30.03 846 24.98 -26.5 -15.6 66 -31 -23.9
09:20 1017 30.03 846 24.98 -26.4 -15.6 68 -30.8 -23.4
09:25 1017 30.03 846 24.98 -26.4 -15.4 66 -31 -23.8
09:30 1017 30.03 846 24.98 -26.4 -15.4 66 -31 -23.8
09:35 1017 30.03 846 24.98 -26.4 -15.4 64 -31.2 -24.1
09:40 1017 30.03 846 24.98 -26.4 -15.5 66 -31 -23.8
09:45 1017 30.03 846 24.98 -26.3 -15.3 65 -31 -23.8
09:50 1017 30.03 846 24.98 -26.3 -15.4 65 -31 -23.9
09:55 1017 30.03 846 24.98 -26.3 -15.3 66 -30.9 -23.6
10:00 1017 30.03 846 24.98 -26.3 -15.3 66 -30.9 -23.7
10:05 1017 30.03 846 24.98 -26.3 -15.3 67 -30.7 -23.3
10:10 1017 30.03 846 24.98 -26.3 -15.3 67 -30.7 -23.2
10:15 1017 30.03 846 24.98 -26.2 -15.2 67 -30.6 -23.1
10:20 1017 30.03 846 24.98 -26.2 -15.1 68 -30.5 -22.9
10:25 1017 30.03 846 24.98 -26.1 -14.9 67 -30.4 -22.8
10:30 1017 30.03 846 24.98 -26 -14.8 66 -30.6 -23
10:35 1017 30.03 846 24.98 -26 -14.8 65 -30.8 -23.5
10:40 1017 30.03 846 24.98 -26 -14.9 64 -30.9 -23.6
10:45 1017 30.03 846 24.98 -25.9 -14.7 64 -31 -23.7
10:50 1017 30.03 846 24.98 -26 -14.8 63 -31.2 -24.1
10:55 1017 30.03 846 24.98 -25.9 -14.7 65 -30.8 -23.4
11:00 1017 30.03 846 24.98 -25.7 -14.2 64 -30.6 -23.1
11:05 1017 30.03 846 24.98 -25.8 -14.4 65 -30.6 -23
11:10 1017 30.03 846 24.98 -25.8 -14.4 65 -30.6 -23.1
11:15 1017 30.03 846 24.98 -25.7 -14.3 64 -30.6 -23.1
11:20 1017 30.03 846 24.98 -25.7 -14.2 65 -30.5 -22.9
11:25 1017 30.03 846 24.98 -25.6 -14 64 -30.5 -22.9
11:30 1017 30.03 846 24.98 -25.5 -13.9 64 -30.4 -22.7
11:35 1017 30.03 846 24.98 -25.3 -13.6 64 -30.2 -22.4
11:40 1017 30.03 846 24.98 -25.2 -13.4 65 -30 -22.1
11:45 1017 30.03 846 24.98 -25.1 -13.2 63 -30.2 -22.4
11:50 1017 30.03 846 24.98 -25.2 -13.3 66 -29.9 -21.8
11:55 1017 30.03 846 24.98 -25.2 -13.4 69 -29.3 -20.8
12:00 1017 30.03 846 24.98 -25.4 -13.8 71 -29.2 -20.6
12:05 1017 30.03 846 24.98 -25.3 -13.5 71 -29.2 -20.5
12:10 1017 30.03 846 24.98 -25.3 -13.5 71 -29.1 -20.4
12:15 1017 30.03 846 24.98 -25.4 -13.6 69 -29.4 -21
12:20 1016 30 846 24.98 -25.3 -13.5 71 -29.1 -20.4
12:25 1016 30 846 24.98 -24.8 -12.7 69 -28.9 -20
12:30 1016 30 846 24.98 -25 -13 70 -29 -20.3
12:35 1016 30 845 24.95 -24.7 -12.5 69 -28.9 -20
12:40 1016 30 845 24.95 -24.5 -12 69 -28.6 -19.4
12:45 1016 30 845 24.95 -24.5 -12.1 70 -28.6 -19.4
12:50 1016 30 845 24.95 -24.9 -12.7 69 -29.1 -20.3
12:55 1016 30 845 24.95 -24.9 -12.7 70 -28.9 -20
13:00 1016 30 845 24.95 -24.7 -12.5 69 -28.8 -19.8
13:05 1016 30 845 24.95 -24.9 -12.7 70 -28.9 -20
13:10 1016 30 845 24.95 -24.7 -12.4 70 -28.7 -19.7
13:15 1016 30 845 24.95 -24.1 -11.4 67 -28.7 -19.7
13:20 1016 30 845 24.95 -24.3 -11.7 67 -28.8 -19.8
13:25 1016 30 845 24.95 -24.3 -11.7 68 -28.6 -19.5
13:30 1016 30 845 24.95 -23.7 -10.6 68 -28 -18.4
13:35 1016 30 845 24.95 -23.8 -10.9 68 -28.2 -18.8
13:40 1016 30 845 24.95 -23.7 -10.7 65 -28.6 -19.4
13:45 1016 30 845 24.95 -24.2 -11.5 68 -28.6 -19.4
13:50 1015 29.97 845 24.95 -23.5 -10.3 67 -28 -18.3
13:55 1015 29.97 845 24.95 -23.2 -9.7 63 -28.4 -19.2
14:00 1015 29.97 845 24.95 -24 -11.2 67 -28.5 -19.4
14:05 1015 29.97 844 24.92 -23.3 -10 64 -28.4 -19.2
14:10 1015 29.97 844 24.92 -23.5 -10.2 67 -28 -18.3
14:15 1015 29.97 844 24.92 -22.9 -9.1 65 -27.8 -18
14:20 1015 29.97 844 24.92 -22.2 -7.9 62 -27.6 -17.6
14:25 1015 29.97 844 24.92 -21.8 -7.2 61 -27.4 -17.4
14:30 1015 29.97 844 24.92 -22 -7.7 61 -27.6 -17.7
14:35 1015 29.97 844 24.92 -22.1 -7.7 61 -27.8 -18
14:40 1015 29.97 844 24.92 -22.5 -8.5 62 -27.8 -18.1
14:45 1015 29.97 844 24.92 -22.5 -8.4 62 -27.8 -18.1
14:50 1015 29.97 844 24.92 -22.1 -7.7 61 -27.8 -18
14:55 1015 29.97 844 24.92 -22 -7.5 60 -27.8 -18
15:00 1015 29.97 844 24.92 -21.8 -7.2 60 -27.6 -17.6
15:05 1015 29.97 844 24.92 -21.8 -7.2 60 -27.6 -17.6
15:10 1015 29.97 844 24.92 -21.6 -6.9 59 -27.6 -17.6
15:15 1015 29.97 844 24.92 -22 -7.5 60 -27.7 -17.9
15:20 1015 29.97 844 24.92 -22.4 -8.3 61 -28.1 -18.5
15:25 1015 29.97 844 24.92 -22.5 -8.5 61 -28.1 -18.6
15:30 1015 29.97 844 24.92 -22.4 -8.2 59 -28.3 -18.9
15:35 1015 29.97 844 24.92 -22.2 -7.9 60 -28 -18.4
15:40 1015 29.97 844 24.92 -21.9 -7.4 59 -27.8 -18.1
15:45 1015 29.97 844 24.92 -21.9 -7.4 59 -27.9 -18.3
15:50 1015 29.97 844 24.92 -22 -7.6 57 -28.4 -19.1
15:55 1015 29.97 844 24.92 -21.9 -7.5 57 -28.4 -19
16:00 1015 29.97 844 24.92 -21.9 -7.4 57 -28.2 -18.7
16:05 1015 29.97 844 24.92 -22.1 -7.8 58 -28.3 -19
16:10 1015 29.97 844 24.92 -22.1 -7.7 58 -28.2 -18.8
16:15 1015 29.97 844 24.92 -22.2 -7.9 59 -28.2 -18.7
16:20 1015 29.97 844 24.92 -22.4 -8.4 60 -28.3 -18.9
16:25 1015 29.97 844 24.92 -22.6 -8.6 60 -28.3 -18.9
16:30 1015 29.97 844 24.92 -23 -9.5 61 -28.5 -19.4
16:35 1015 29.97 844 24.92 -23 -9.3 61 -28.6 -19.4
16:40 1015 29.97 844 24.92 -23.4 -10.1 61 -29 -20.3
16:45 1015 29.97 844 24.92 -23.6 -10.6 60 -29.4 -21
16:50 1015 29.97 844 24.92 -23.6 -10.5 61 -29.1 -20.4
16:55 1015 29.97 844 24.92 -23.9 -11.1 62 -29.3 -20.7
17:00 1015 29.97 844 24.92 -24.1 -11.5 63 -29.4 -20.9
17:05 1015 29.97 844 24.92 -24.2 -11.6 63 -29.4 -20.9
17:10 1015 29.97 844 24.92 -24.3 -11.7 64 -29.3 -20.7
17:15 1015 29.97 844 24.92 -24.3 -11.8 65 -29.1 -20.4
17:20 1015 29.97 844 24.92 -24.5 -12 66 -29.2 -20.5
17:25 1015 29.97 844 24.92 -24.5 -12.2 67 -29.1 -20.4
17:30 1015 29.97 844 24.92 -24.6 -12.2 68 -28.9 -20
17:35 1015 29.97 844 24.92 -24.6 -12.4 68 -29 -20.1
17:40 1015 29.97 844 24.92 -24.9 -12.7 70 -28.8 -19.9
17:45 1015 29.97 844 24.92 -24.8 -12.6 70 -28.8 -19.8
17:50 1014 29.94 844 24.92 -24.9 -12.7 69 -29 -20.2
17:55 1014 29.94 844 24.92 -25.1 -13.1 70 -29 -20.2
18:00 1014 29.94 844 24.92 -25.2 -13.3 70 -29.1 -20.4
18:05 1014 29.94 844 24.92 -25.3 -13.5 70 -29.2 -20.6
18:10 1014 29.94 844 24.92 -25.3 -13.5 72 -28.9 -20.1
18:15 1014 29.94 844 24.92 -25.1 -13.2 71 -28.9 -20
18:20 1014 29.94 844 24.92 -25.2 -13.4 72 -28.9 -20.1
18:25 1015 29.97 844 24.92 -25.1 -13.2 72 -28.9 -19.9
18:30 1015 29.97 844 24.92 -25 -13 72 -28.8 -19.8
18:35 1015 29.97 844 24.92 -25.1 -13.2 72 -28.7 -19.7
18:40 1015 29.97 844 24.92 -25.4 -13.7 74 -28.7 -19.7
18:45 1015 29.97 844 24.92 -25.5 -14 75 -28.8 -19.8
18:50 1015 29.97 844 24.92 -25.7 -14.3 75 -29 -20.2
18:55 1015 29.97 844 24.92 -25.8 -14.5 75 -29.1 -20.4
19:00 1015 29.97 844 24.92 -25.8 -14.4 75 -29 -20.2
19:05 1015 29.97 844 24.92 -26 -14.9 74 -29.5 -21
19:10 1015 29.97 844 24.92 -26.5 -15.6 75 -29.6 -21.3
19:15 1015 29.97 844 24.92 -26.6 -15.9 74 -30 -21.9
19:20 1015 29.97 844 24.92 -26.8 -16.3 75 -30 -22.1
19:25 1015 29.97 844 24.92 -26.8 -16.3 76 -29.9 -21.9
19:30 1015 29.97 844 24.92 -26.7 -16 76 -29.7 -21.5
19:35 1015 29.97 844 24.92 -26.4 -15.6 75 -29.6 -21.2
19:40 1015 29.97 844 24.92 -26.4 -15.4 76 -29.5 -21.1
19:45 1015 29.97 844 24.92 -26.4 -15.5 75 -29.5 -21.1
19:50 1015 29.97 844 24.92 -26.4 -15.5 75 -29.6 -21.3
19:55 1015 29.97 844 24.92 -26.3 -15.4 74 -29.7 -21.4
20:00 1015 29.97 844 24.92 -26.7 -16 73 -30.2 -22.3
20:05 1015 29.97 844 24.92 -27.3 -17.1 74 -30.6 -23
20:10 1015 29.97 844 24.92 -27.5 -17.5 76 -30.5 -23
20:15 1015 29.97 844 24.92 -27.4 -17.3 77 -30.3 -22.6
20:20 1015 29.97 844 24.92 -27.2 -17 76 -30.3 -22.5
20:25 1015 29.97 844 24.92 -27.3 -17.2 75 -30.5 -22.9
20:30 1015 29.97 844 24.92 -27.5 -17.4 74 -30.9 -23.5
20:35 1015 29.97 844 24.92 -27.8 -18 75 -31 -23.8
20:40 1015 29.97 844 24.92 -27.8 -18 76 -30.8 -23.4
20:45 1015 29.97 845 24.95 -27.4 -17.2 76 -30.4 -22.7
20:50 1015 29.97 845 24.95 -27.1 -16.7 75 -30.2 -22.4
20:55 1015 29.97 845 24.95 -27.3 -17.2 75 -30.4 -22.8
21:00 1015 29.97 845 24.95 -27.3 -17.2 79 -29.9 -21.8
21:05 1015 29.97 845 24.95 -27 -16.7 78 -29.8 -21.7
21:10 1015 29.97 845 24.95 -27 -16.6 74 -30.4 -22.7
21:15 1015 29.97 845 24.95 -27.3 -17.1 74 -30.6 -23.1
21:20 1015 29.97 845 24.95 -27.5 -17.4 73 -30.9 -23.6
21:25 1015 29.97 845 24.95 -27.6 -17.6 77 -30.4 -22.8
21:30 1015 29.97 845 24.95 -27.1 -16.8 76 -30.2 -22.4
21:35 1015 29.97 845 24.95 -27.2 -16.9 72 -30.7 -23.3
21:40 1015 29.97 845 24.95 -27.4 -17.3 72 -31.1 -23.9
21:45 1015 29.97 845 24.95 -27.7 -17.8 71 -31.4 -24.5
21:50 1015 29.97 845 24.95 -27.8 -18 73 -31.2 -24.1
21:55 1015 29.97 845 24.95 -27.6 -17.6 73 -31 -23.8
22:00 1015 29.97 845 24.95 -27.4 -17.3 72 -31 -23.8
22:05 1015 29.97 845 24.95 -27.6 -17.6 75 -30.7 -23.3
22:10 1015 29.97 845 24.95 -27.4 -17.3 73 -30.9 -23.6
22:15 1015 29.97 845 24.95 -27.2 -17 74 -30.6 -23.1
22:20 1015 29.97 845 24.95 -27.2 -16.9 73 -30.6 -23
22:25 1015 29.97 845 24.95 -27.2 -16.9 72 -30.8 -23.5
22:30 1015 29.97 845 24.95 -27.2 -17 73 -30.6 -23.1
22:35 1015 29.97 845 24.95 -27.3 -17.1 73 -30.7 -23.2
22:40 1015 29.97 845 24.95 -27.5 -17.4 74 -30.8 -23.4
22:45 1015 29.97 845 24.95 -27.6 -17.7 75 -30.8 -23.4
22:50 1015 29.97 845 24.95 -27.5 -17.6 74 -30.8 -23.4
22:55 1016 30 845 24.95 -27.5 -17.5 74 -30.8 -23.4
23:00 1016 30 845 24.95 -27.4 -17.4 74 -30.7 -23.3
23:05 1015 29.97 845 24.95 -27.3 -17.1 74 -30.6 -23.2
23:10 1016 30 845 24.95 -27.1 -16.8 72 -30.8 -23.4
23:15 1016 30 845 24.95 -27 -16.7 72 -30.7 -23.3
23:20 1016 30 845 24.95 -27.1 -16.8 71 -30.8 -23.5
23:25 1016 30 845 24.95 -27.2 -17 73 -30.7 -23.3
23:30 1015 29.97 845 24.95 -27.3 -17.1 72 -30.8 -23.5
23:35 1015 29.97 845 24.95 -27.5 -17.6 72 -31.1 -24
23:40 1015 29.97 845 24.95 -27.7 -17.8 73 -31.1 -23.9
23:45 1015 29.97 845 24.95 -27.5 -17.6 73 -31 -23.8
23:50 1015 29.97 845 24.95 -27.4 -17.3 72 -31 -23.7
23:55 1015 29.97 844 24.92 -27.4 -17.2 72 -31 -23.8
24:00 1015 29.97 844 24.92 -27.3 -17.1 70 -31.2 -24.1